createdAt,value
2023-05-21T00:03:05.903Z,13.60
2023-05-21T00:08:08.930Z,13.30
2023-05-21T00:13:13.018Z,13.30
2023-05-21T00:18:16.213Z,13.40
2023-05-21T00:23:19.389Z,13.30
2023-05-21T00:28:23.385Z,13.30
2023-05-21T00:33:29.066Z,13.10
2023-05-21T00:38:32.905Z,13.00
2023-05-21T00:43:40.233Z,13.00
2023-05-21T00:48:43.405Z,12.90
2023-05-21T00:53:46.660Z,12.80
2023-05-21T00:58:51.989Z,12.70
2023-05-21T01:03:57.637Z,12.60
2023-05-21T01:09:00.442Z,12.70
2023-05-21T01:14:09.315Z,12.80
2023-05-21T01:19:16.414Z,12.90
2023-05-21T01:24:20.678Z,13.10
2023-05-21T01:29:23.436Z,13.20
2023-05-21T01:34:31.219Z,13.20
2023-05-21T01:39:39.388Z,13.20
2023-05-21T01:44:42.584Z,13.00
2023-05-21T01:49:45.936Z,13.00
2023-05-21T01:54:51.328Z,12.90
2023-05-21T01:59:54.717Z,12.80
2023-05-21T02:04:57.389Z,12.70
2023-05-21T02:10:01.430Z,12.70
2023-05-21T02:15:05.905Z,12.50
2023-05-21T02:20:11.523Z,12.30
2023-05-21T02:25:17.249Z,12.30
2023-05-21T02:30:20.788Z,12.10
2023-05-21T02:35:23.573Z,12.10
2023-05-21T02:40:27.605Z,12.20
2023-05-21T02:45:31.219Z,12.20
2023-05-21T02:50:34.049Z,12.00
2023-05-21T02:55:38.416Z,11.90
2023-05-21T03:00:41.572Z,11.80
2023-05-21T03:05:45.790Z,11.70
2023-05-21T03:10:50.292Z,11.70
2023-05-21T03:15:56.222Z,11.70
2023-05-21T03:20:59.063Z,11.70
2023-05-21T03:26:03.157Z,11.90
2023-05-21T03:31:06.468Z,12.20
2023-05-21T03:36:09.179Z,12.40
2023-05-21T03:41:13.795Z,12.50
2023-05-21T03:46:16.651Z,12.50
2023-05-21T03:51:20.339Z,12.50
2023-05-21T03:56:24.367Z,12.70
2023-05-21T04:01:28.275Z,12.80
2023-05-21T04:06:31.114Z,13.00
2023-05-21T04:11:35.119Z,13.00
2023-05-21T04:16:40.091Z,13.10
2023-05-21T04:21:45.071Z,13.40
2023-05-21T04:26:49.841Z,13.60
2023-05-21T04:31:52.573Z,13.80
2023-05-21T04:36:55.295Z,14.10
2023-05-21T04:41:59.391Z,14.30
2023-05-21T04:47:02.259Z,14.70
2023-05-21T04:52:05.403Z,15.20
2023-05-21T04:57:09.664Z,15.70
2023-05-21T05:02:12.412Z,16.10
2023-05-21T05:07:15.559Z,16.20
2023-05-21T05:12:19.690Z,16.60
2023-05-21T05:17:22.513Z,16.90
2023-05-21T05:22:25.292Z,17.10
2023-05-21T05:27:29.404Z,17.40
2023-05-21T05:32:32.100Z,18.00
2023-05-21T05:37:34.840Z,18.70
2023-05-21T05:42:39.096Z,18.90
2023-05-21T05:47:41.930Z,19.20
2023-05-21T05:52:44.687Z,19.50
2023-05-21T05:57:48.888Z,19.60
2023-05-21T06:02:51.873Z,20.00
2023-05-21T06:07:54.731Z,20.30
2023-05-21T06:12:58.819Z,20.60
2023-05-21T06:18:01.586Z,21.50
2023-05-21T06:23:04.561Z,22.10
2023-05-21T06:28:08.709Z,22.70
2023-05-21T06:33:11.658Z,22.90
2023-05-21T06:38:14.524Z,22.50
2023-05-21T06:43:18.582Z,22.30
2023-05-21T06:48:21.292Z,22.50
2023-05-21T06:53:23.996Z,22.70
2023-05-21T06:58:31.243Z,22.70
2023-05-21T07:03:34.031Z,22.70
2023-05-21T07:08:37.021Z,23.00
2023-05-21T07:13:41.052Z,23.10
2023-05-21T07:18:43.781Z,23.20
2023-05-21T07:23:46.523Z,23.20
2023-05-21T07:28:50.608Z,23.00
2023-05-21T07:33:53.335Z,23.40
2023-05-21T07:38:56.305Z,23.60
2023-05-21T07:44:01.560Z,24.00
2023-05-21T07:49:04.369Z,24.30
2023-05-21T07:54:07.088Z,24.70
2023-05-21T07:59:12.794Z,25.10
2023-05-21T08:04:16.701Z,25.40
2023-05-21T08:09:19.655Z,25.30
2023-05-21T08:14:25.715Z,25.70
2023-05-21T08:19:28.582Z,26.10
2023-05-21T08:24:31.334Z,26.50
2023-05-21T08:29:35.524Z,27.10
2023-05-21T08:34:38.264Z,27.80
2023-05-21T08:39:41.043Z,28.40
2023-05-21T08:44:52.748Z,28.20
2023-05-21T08:49:56.540Z,28.70
2023-05-21T08:54:59.466Z,29.60
2023-05-21T09:00:04.788Z,30.50
2023-05-21T09:05:09.932Z,31.50
2023-05-21T09:10:14.135Z,30.30
2023-05-21T09:15:18.573Z,29.10
2023-05-21T09:20:26.555Z,28.30
2023-05-21T09:25:29.676Z,29.50
2023-05-21T09:30:35.916Z,30.50
2023-05-21T09:35:44.997Z,33.10
2023-05-21T09:40:47.857Z,35.30
2023-05-21T09:45:57.780Z,36.80
2023-05-21T09:51:12.944Z,37.80
2023-05-21T09:56:15.699Z,37.80
2023-05-21T10:01:21.184Z,37.40
2023-05-21T10:06:27.087Z,39.10
2023-05-21T10:11:32.998Z,40.50
2023-05-21T10:16:38.240Z,42.70
2023-05-21T10:21:42.513Z,44.40
2023-05-21T10:26:47.042Z,43.80
2023-05-21T10:31:53.422Z,43.50
2023-05-21T10:36:57.100Z,40.50
2023-05-21T10:42:13.415Z,35.70
2023-05-21T10:47:48.580Z,32.10
2023-05-21T10:53:09.906Z,32.90
2023-05-21T10:58:47.932Z,37.80
2023-05-21T11:03:52.089Z,39.20
2023-05-21T11:08:55.775Z,41.20
2023-05-21T11:14:30.039Z,43.10
2023-05-21T11:19:39.552Z,43.70
2023-05-21T11:24:57.979Z,44.10
2023-05-21T11:30:21.352Z,44.60
2023-05-21T11:35:32.103Z,45.70
2023-05-21T11:40:37.250Z,46.60
2023-05-21T11:45:40.734Z,47.30
2023-05-21T11:50:46.294Z,46.80
2023-05-21T11:55:50.666Z,46.30
2023-05-21T12:00:53.727Z,46.10
2023-05-21T12:06:06.354Z,45.90
2023-05-21T12:11:09.162Z,45.50
2023-05-21T12:16:12.784Z,42.30
2023-05-21T12:21:17.743Z,37.90
2023-05-21T12:26:21.808Z,35.80
2023-05-21T12:31:27.351Z,35.30
2023-05-21T12:36:34.186Z,40.10
2023-05-21T12:41:36.954Z,44.20
2023-05-21T12:46:39.827Z,43.90
2023-05-21T12:51:46.563Z,42.60
2023-05-21T12:56:49.356Z,39.30
2023-05-21T13:01:53.956Z,37.90
2023-05-21T13:06:58.025Z,40.60
2023-05-21T13:12:00.725Z,44.30
2023-05-21T13:17:03.480Z,45.60
2023-05-21T13:22:07.767Z,46.40
2023-05-21T13:27:10.478Z,46.80
2023-05-21T13:32:13.138Z,45.20
2023-05-21T13:37:17.216Z,43.60
2023-05-21T13:42:21.053Z,42.90
2023-05-21T13:47:24.110Z,43.10
2023-05-21T13:52:28.284Z,43.80
2023-05-21T13:57:31.494Z,39.50
2023-05-21T14:02:34.668Z,37.10
2023-05-21T14:07:39.841Z,34.60
2023-05-21T14:12:42.645Z,34.00
2023-05-21T14:17:45.474Z,37.80
2023-05-21T14:22:49.579Z,40.60
2023-05-21T14:27:53.150Z,41.10
2023-05-21T14:32:57.880Z,40.20
2023-05-21T14:38:02.096Z,39.50
2023-05-21T14:43:06.404Z,40.10
2023-05-21T14:48:09.204Z,39.00
2023-05-21T14:53:13.428Z,37.50
2023-05-21T14:58:16.225Z,36.90
2023-05-21T15:03:18.981Z,36.40
2023-05-21T15:08:23.216Z,36.80
2023-05-21T15:13:27.146Z,36.50
2023-05-21T15:18:30.079Z,36.20
2023-05-21T15:23:34.118Z,35.90
2023-05-21T15:28:36.830Z,35.30
2023-05-21T15:33:39.614Z,34.20
2023-05-21T15:38:44.139Z,32.90
2023-05-21T15:43:47.356Z,32.60
2023-05-21T15:48:50.091Z,32.80
2023-05-21T15:53:54.135Z,32.50
2023-05-21T15:58:59.894Z,32.70
2023-05-21T16:04:03.424Z,32.90
2023-05-21T16:09:08.040Z,32.60
2023-05-21T16:14:10.804Z,33.00
2023-05-21T16:19:13.579Z,32.50
2023-05-21T16:24:17.725Z,31.70
2023-05-21T16:29:22.139Z,31.80
2023-05-21T16:34:25.021Z,31.70
2023-05-21T16:39:29.173Z,31.20
2023-05-21T16:44:32.287Z,31.20
2023-05-21T16:49:35.085Z,31.70
2023-05-21T16:54:39.124Z,31.10
2023-05-21T16:59:41.917Z,30.70
2023-05-21T17:04:44.771Z,29.90
2023-05-21T17:09:48.942Z,29.40
2023-05-21T17:14:52.185Z,29.30
2023-05-21T17:19:54.996Z,28.70
2023-05-21T17:24:59.291Z,28.40
2023-05-21T17:30:02.793Z,27.90
2023-05-21T17:35:06.155Z,27.50
2023-05-21T17:40:11.468Z,27.20
2023-05-21T17:45:14.172Z,26.80
2023-05-21T17:50:16.949Z,26.50
2023-05-21T17:55:21.243Z,26.10
2023-05-21T18:00:24.016Z,25.80
2023-05-21T18:05:26.779Z,25.50
2023-05-21T18:10:31.035Z,25.20
2023-05-21T18:15:34.366Z,24.90
2023-05-21T18:20:37.328Z,24.60
2023-05-21T18:25:41.619Z,24.30
2023-05-21T18:30:44.380Z,23.90
2023-05-21T18:35:47.074Z,23.70
2023-05-21T18:40:51.902Z,23.70
2023-05-21T18:45:54.720Z,23.40
2023-05-21T18:50:57.788Z,23.30
2023-05-21T18:56:02.168Z,23.20
2023-05-21T19:01:05.470Z,23.00
2023-05-21T19:06:09.816Z,22.80
2023-05-21T19:11:17.957Z,22.60
2023-05-21T19:16:24.014Z,22.40
2023-05-21T19:21:32.581Z,22.30
2023-05-21T19:26:37.719Z,22.20
2023-05-21T19:31:41.296Z,22.20
2023-05-21T19:36:53.053Z,22.20
2023-05-21T19:41:57.999Z,22.20
2023-05-21T19:47:01.381Z,22.10
2023-05-21T19:52:04.283Z,22.10
2023-05-21T19:57:10.249Z,21.80
2023-05-21T20:02:17.002Z,21.70
2023-05-21T20:07:19.807Z,21.60
2023-05-21T20:12:23.846Z,21.40
2023-05-21T20:17:28.477Z,21.30
2023-05-21T20:22:31.842Z,21.30
2023-05-21T20:27:38.544Z,21.20
2023-05-21T20:32:41.389Z,21.00
2023-05-21T20:37:44.206Z,21.00
2023-05-21T20:42:50.306Z,20.80
2023-05-21T20:47:53.540Z,20.50
2023-05-21T20:52:58.018Z,20.40
2023-05-21T20:58:02.599Z,20.10
2023-05-21T21:03:05.798Z,19.90
2023-05-21T21:08:08.591Z,20.00
2023-05-21T21:13:12.640Z,20.30
2023-05-21T21:18:16.181Z,20.20
2023-05-21T21:23:18.943Z,20.20
2023-05-21T21:28:22.971Z,20.10
2023-05-21T21:33:26.761Z,19.90
2023-05-21T21:38:29.770Z,19.60
2023-05-21T21:43:33.850Z,19.40
2023-05-21T21:48:39.670Z,19.50
2023-05-21T21:53:42.380Z,19.30
2023-05-21T21:58:47.184Z,19.20
2023-05-21T22:03:49.880Z,19.00
2023-05-21T22:08:52.619Z,19.00
2023-05-21T22:13:57.266Z,19.00
2023-05-21T22:18:59.984Z,19.00
2023-05-21T22:24:02.705Z,18.70
2023-05-21T22:29:06.715Z,18.70
2023-05-21T22:34:09.734Z,18.80
2023-05-21T22:39:12.459Z,18.60
2023-05-21T22:44:16.631Z,18.80
2023-05-21T22:49:19.848Z,18.70
2023-05-21T22:54:22.788Z,18.80
2023-05-21T22:59:26.920Z,18.60
2023-05-21T23:04:43.149Z,18.50
2023-05-21T23:09:47.029Z,18.10
2023-05-21T23:14:51.131Z,17.70
2023-05-21T23:19:53.859Z,17.80
2023-05-21T23:24:56.574Z,17.60
2023-05-21T23:30:02.832Z,17.70
2023-05-21T23:35:06.187Z,17.60
2023-05-21T23:40:09.985Z,17.50
2023-05-21T23:45:14.170Z,17.20
2023-05-21T23:50:17.032Z,16.90
2023-05-21T23:55:19.735Z,16.70
